Randolph AFB, Texas
Current Conditions -  °F | °C
As of 3:58 PM on Thursday 23 Oct 2014 (Local Time) from KRND Reporting Station
Broken Clouds Broken Clouds  
Wind Chill: 82°   Ceiling: 11000
Heat Index: 82°   Visibility: 10mi
Dew Point: 58°   Wind: 1mph
Humidity: 44%   Direction: NA
Pressure: 30.07"   Gusts: NA
Location:  29.5519°N, 98.3081°W
Report Text: KRND 232058Z AUTO VRB01KT 10SM FEW050 BKN110 28/15 A3007 RMK AO2 SLP176 T02790145 57023 $
Loading
Personal Weather Stations






























Interactive Weather Map
Tropical Storm Tracking
New forecast layout! Learn more

10-Day Weather Forecast

Advertisements
Track Severe Weather on mobile